createdAt,value
2023-03-21T00:01:26.445Z,11.05
2023-03-21T00:03:33.237Z,11.01
2023-03-21T00:05:42.371Z,10.92
2023-03-21T00:07:47.347Z,10.88
2023-03-21T00:09:53.661Z,10.87
2023-03-21T00:12:07.477Z,10.81
2023-03-21T00:14:14.560Z,10.73
2023-03-21T00:16:28.126Z,10.76
2023-03-21T00:18:36.841Z,10.75
2023-03-21T00:20:42.174Z,10.81
2023-03-21T00:22:46.777Z,10.79
2023-03-21T00:24:52.298Z,10.85
2023-03-21T00:27:06.068Z,10.94
2023-03-21T00:29:18.061Z,10.97
2023-03-21T00:31:24.773Z,10.98
2023-03-21T00:33:30.222Z,11.00
2023-03-21T00:35:57.805Z,11.00
2023-03-21T00:38:00.102Z,10.97
2023-03-21T00:40:08.783Z,11.01
2023-03-21T00:42:15.508Z,10.95
2023-03-21T00:44:25.766Z,10.83
2023-03-21T00:46:43.982Z,10.79
2023-03-21T00:48:51.954Z,10.72
2023-03-21T00:50:59.485Z,10.75
2023-03-21T00:53:04.499Z,10.76
2023-03-21T00:55:10.914Z,10.71
2023-03-21T00:57:16.185Z,10.65
2023-03-21T00:59:24.264Z,10.64
2023-03-21T01:01:32.090Z,10.53
2023-03-21T01:03:42.682Z,10.50
2023-03-21T01:06:07.194Z,10.41
2023-03-21T01:08:25.084Z,10.37
2023-03-21T01:10:33.054Z,10.29
2023-03-21T01:12:37.892Z,10.29
2023-03-21T01:14:45.333Z,10.34
2023-03-21T01:16:50.616Z,10.33
2023-03-21T01:18:56.227Z,10.35
2023-03-21T01:21:02.812Z,10.45
2023-03-21T01:23:07.683Z,10.49
2023-03-21T01:25:22.405Z,10.55
2023-03-21T01:27:28.103Z,10.57
2023-03-21T01:29:32.895Z,10.60
2023-03-21T01:31:40.428Z,10.61
2023-03-21T01:33:46.116Z,10.64
2023-03-21T01:35:57.648Z,10.67
2023-03-21T01:38:11.650Z,10.72
2023-03-21T01:40:25.502Z,10.73
2023-03-21T01:42:37.882Z,10.75
2023-03-21T01:44:56.788Z,10.76
2023-03-21T01:47:13.031Z,10.77
2023-03-21T01:49:34.311Z,10.80
2023-03-21T01:51:53.710Z,10.81
2023-03-21T01:53:57.768Z,10.83
2023-03-21T01:56:08.311Z,10.83
2023-03-21T01:58:33.675Z,10.83
2023-03-21T02:01:00.619Z,10.85
2023-03-21T02:03:29.603Z,10.87
2023-03-21T02:06:02.319Z,10.85
2023-03-21T02:08:14.207Z,10.84
2023-03-21T02:10:20.158Z,10.79
2023-03-21T02:12:29.678Z,10.74
2023-03-21T02:14:37.639Z,10.75
2023-03-21T02:17:03.860Z,10.77
2023-03-21T02:19:41.539Z,10.75
2023-03-21T02:22:14.940Z,10.68
2023-03-21T02:25:08.314Z,10.61
2023-03-21T02:27:22.098Z,10.57
2023-03-21T02:29:53.233Z,10.54
2023-03-21T02:32:20.420Z,10.49
2023-03-21T02:34:55.439Z,10.45
2023-03-21T02:37:28.918Z,10.43
2023-03-21T02:39:52.561Z,10.43
2023-03-21T02:42:09.548Z,10.43
2023-03-21T02:44:23.966Z,10.48
2023-03-21T02:46:42.950Z,10.51
2023-03-21T02:48:57.595Z,10.51
2023-03-21T02:51:04.856Z,10.53
2023-03-21T02:53:16.001Z,10.58
2023-03-21T02:55:27.225Z,10.56
2023-03-21T02:57:43.282Z,10.42
2023-03-21T02:59:55.734Z,10.35
2023-03-21T03:02:10.172Z,10.30
2023-03-21T03:04:23.053Z,10.30
2023-03-21T03:06:37.064Z,10.29
2023-03-21T03:09:02.220Z,10.18
2023-03-21T03:11:21.233Z,10.19
2023-03-21T03:13:38.625Z,10.28
2023-03-21T03:15:52.602Z,10.36
2023-03-21T03:18:03.394Z,10.42
2023-03-21T03:20:31.258Z,10.47
2023-03-21T03:22:45.585Z,10.52
2023-03-21T03:25:04.778Z,10.57
2023-03-21T03:27:22.893Z,10.61
2023-03-21T03:29:31.663Z,10.67
2023-03-21T03:31:39.340Z,10.69
2023-03-21T03:33:49.408Z,10.74
2023-03-21T03:36:05.570Z,10.73
2023-03-21T03:38:16.307Z,10.74
2023-03-21T03:40:28.949Z,10.75
2023-03-21T03:42:47.477Z,10.78
2023-03-21T03:45:01.519Z,10.76
2023-03-21T03:47:17.537Z,10.77
2023-03-21T03:49:35.799Z,10.78
2023-03-21T03:51:46.754Z,10.77
2023-03-21T03:54:14.348Z,10.76
2023-03-21T03:56:23.557Z,10.72
2023-03-21T03:58:43.057Z,10.67
2023-03-21T04:00:50.610Z,10.61
2023-03-21T04:02:55.174Z,10.53
2023-03-21T04:05:04.427Z,10.49
2023-03-21T04:07:09.316Z,10.47
2023-03-21T04:09:21.954Z,10.47
2023-03-21T04:11:33.586Z,10.44
2023-03-21T04:13:38.630Z,10.43
2023-03-21T04:15:48.544Z,10.41
2023-03-21T04:17:54.670Z,10.36
2023-03-21T04:20:10.921Z,10.36
2023-03-21T04:22:19.340Z,10.31
2023-03-21T04:24:24.989Z,10.28
2023-03-21T04:26:34.138Z,10.25
2023-03-21T04:29:00.598Z,10.19
2023-03-21T04:31:26.487Z,10.17
2023-03-21T04:33:40.216Z,10.15
2023-03-21T04:35:46.159Z,10.15
2023-03-21T04:37:52.512Z,10.15
2023-03-21T04:39:57.385Z,10.13
2023-03-21T04:42:05.191Z,10.06
2023-03-21T04:44:10.794Z,10.02
2023-03-21T04:46:17.038Z,10.03
2023-03-21T04:48:24.745Z,10.01
2023-03-21T04:50:30.076Z,9.96
2023-03-21T04:52:36.216Z,9.96
2023-03-21T04:54:40.969Z,9.97
2023-03-21T04:56:45.855Z,9.97
2023-03-21T04:58:53.845Z,10.01
2023-03-21T05:00:58.768Z,10.02
2023-03-21T05:03:05.211Z,10.05
2023-03-21T05:05:12.360Z,10.05
2023-03-21T05:07:17.349Z,10.07
2023-03-21T05:09:22.622Z,10.03
2023-03-21T05:11:27.495Z,10.04
2023-03-21T05:13:32.465Z,10.06
2023-03-21T05:15:40.005Z,10.07
2023-03-21T05:17:45.033Z,10.08
2023-03-21T05:19:50.670Z,10.04
2023-03-21T05:21:55.566Z,10.02
2023-03-21T05:24:04.375Z,10.01
2023-03-21T05:26:11.411Z,9.95
2023-03-21T05:28:22.963Z,9.94
2023-03-21T05:30:27.777Z,9.92
2023-03-21T05:32:39.225Z,9.96
2023-03-21T05:34:47.236Z,9.99
2023-03-21T05:36:52.446Z,9.98
2023-03-21T05:38:59.036Z,10.04
2023-03-21T05:41:04.277Z,10.01
2023-03-21T05:43:10.321Z,10.02
2023-03-21T05:45:15.348Z,10.06
2023-03-21T05:47:20.573Z,10.06
2023-03-21T05:49:28.568Z,10.07
2023-03-21T05:51:37.167Z,10.11
2023-03-21T05:53:42.038Z,10.14
2023-03-21T05:55:46.971Z,10.15
2023-03-21T05:58:07.408Z,10.09
2023-03-21T06:00:13.117Z,10.03
2023-03-21T06:02:20.929Z,10.03
2023-03-21T06:04:29.649Z,10.11
2023-03-21T06:06:34.794Z,10.11
2023-03-21T06:08:40.338Z,10.15
2023-03-21T06:10:45.158Z,10.14
2023-03-21T06:12:50.981Z,10.21
2023-03-21T06:15:08.966Z,10.27
2023-03-21T06:17:48.769Z,10.34
2023-03-21T06:19:57.340Z,10.40
2023-03-21T06:22:11.153Z,10.44
2023-03-21T06:24:20.631Z,10.51
2023-03-21T06:26:25.766Z,10.54
2023-03-21T06:28:31.999Z,10.60
2023-03-21T06:30:37.195Z,10.67
2023-03-21T06:32:49.690Z,10.72
2023-03-21T06:34:58.511Z,10.75
2023-03-21T06:37:04.105Z,10.79
2023-03-21T06:39:11.124Z,10.90
2023-03-21T06:41:18.994Z,10.97
2023-03-21T06:43:34.132Z,11.01
2023-03-21T06:45:41.454Z,11.07
2023-03-21T06:47:48.702Z,11.16
2023-03-21T06:50:09.556Z,11.19
2023-03-21T06:52:19.363Z,11.21
2023-03-21T06:54:24.218Z,11.23
2023-03-21T06:56:35.166Z,11.25
2023-03-21T06:58:42.117Z,11.32
2023-03-21T07:00:54.040Z,11.42
2023-03-21T07:02:59.177Z,11.48
2023-03-21T07:05:04.111Z,11.56
2023-03-21T07:07:11.714Z,11.61
2023-03-21T07:09:17.949Z,11.65
2023-03-21T07:11:23.248Z,11.76
2023-03-21T07:13:28.096Z,11.83
2023-03-21T07:15:41.465Z,11.88
2023-03-21T07:17:46.609Z,11.90
2023-03-21T07:19:51.491Z,11.93
2023-03-21T07:21:57.470Z,11.93
2023-03-21T07:24:04.963Z,11.91
2023-03-21T07:26:10.611Z,11.85
2023-03-21T07:28:15.535Z,11.85
2023-03-21T07:30:21.194Z,11.83
2023-03-21T07:32:30.121Z,11.76
2023-03-21T07:34:36.180Z,11.73
2023-03-21T07:36:41.896Z,11.65
2023-03-21T07:38:48.322Z,11.61
2023-03-21T07:41:02.050Z,11.59
2023-03-21T07:43:10.727Z,11.57
2023-03-21T07:45:22.047Z,11.49
2023-03-21T07:47:27.061Z,11.51
2023-03-21T07:49:32.126Z,11.51
2023-03-21T07:51:37.857Z,11.54
2023-03-21T07:53:43.968Z,11.59
2023-03-21T07:55:52.867Z,11.63
2023-03-21T07:58:00.321Z,11.67
2023-03-21T08:00:06.378Z,11.68
2023-03-21T08:02:18.954Z,11.77
2023-03-21T08:04:23.859Z,11.84
2023-03-21T08:06:32.596Z,11.88
2023-03-21T08:08:37.525Z,11.98
2023-03-21T08:10:42.437Z,11.95
2023-03-21T08:12:47.542Z,12.07
2023-03-21T08:14:55.104Z,12.23
2023-03-21T08:17:00.063Z,12.24
2023-03-21T08:19:04.936Z,12.17
2023-03-21T08:21:10.791Z,12.22
2023-03-21T08:23:16.548Z,12.30
2023-03-21T08:25:26.107Z,12.49
2023-03-21T08:27:31.013Z,12.87
2023-03-21T08:29:40.548Z,13.36
2023-03-21T08:31:47.964Z,13.78
2023-03-21T08:33:54.949Z,13.95
2023-03-21T08:36:02.654Z,14.11
2023-03-21T08:38:08.460Z,14.37
2023-03-21T08:40:16.298Z,14.55
2023-03-21T08:42:22.046Z,14.55
2023-03-21T08:44:27.138Z,14.57
2023-03-21T08:46:32.237Z,14.50
2023-03-21T08:48:40.230Z,14.36
2023-03-21T08:50:45.231Z,14.22
2023-03-21T08:52:51.145Z,14.13
2023-03-21T08:54:56.153Z,14.04
2023-03-21T08:57:01.165Z,13.95
2023-03-21T08:59:05.989Z,13.87
2023-03-21T09:01:15.817Z,13.64
2023-03-21T09:03:20.780Z,13.48
2023-03-21T09:05:28.720Z,13.57
2023-03-21T09:07:34.157Z,13.64
2023-03-21T09:09:39.059Z,13.72
2023-03-21T09:11:43.970Z,13.67
2023-03-21T09:13:48.738Z,13.58
2023-03-21T09:15:54.224Z,13.50
2023-03-21T09:18:13.389Z,13.30
2023-03-21T09:20:22.739Z,13.39
2023-03-21T09:22:30.897Z,13.48
2023-03-21T09:24:35.885Z,13.67
2023-03-21T09:26:40.663Z,13.75
2023-03-21T09:28:47.513Z,13.95
2023-03-21T09:30:52.529Z,14.11
2023-03-21T09:32:57.361Z,14.13
2023-03-21T09:35:02.305Z,14.24
2023-03-21T09:37:13.455Z,14.22
2023-03-21T09:39:21.043Z,14.13
2023-03-21T09:41:39.681Z,14.09
2023-03-21T09:43:57.449Z,13.93
2023-03-21T09:46:08.337Z,13.92
2023-03-21T09:48:30.357Z,13.86
2023-03-21T09:50:38.426Z,13.96
2023-03-21T09:52:50.747Z,14.14
2023-03-21T09:54:58.788Z,14.25
2023-03-21T09:57:15.076Z,14.30
2023-03-21T09:59:33.226Z,14.23
2023-03-21T10:01:42.120Z,14.03
2023-03-21T10:03:47.851Z,13.90
2023-03-21T10:05:57.554Z,13.76
2023-03-21T10:08:08.088Z,13.93
2023-03-21T10:10:20.829Z,13.96
2023-03-21T10:12:30.649Z,13.93
2023-03-21T10:14:40.389Z,14.16
2023-03-21T10:16:47.763Z,14.23
2023-03-21T10:18:53.554Z,14.40
2023-03-21T10:20:59.390Z,14.57
2023-03-21T10:23:07.757Z,14.75
2023-03-21T10:25:21.335Z,14.83
2023-03-21T10:27:26.231Z,14.86
2023-03-21T10:29:37.241Z,14.95
2023-03-21T10:31:44.859Z,14.98
2023-03-21T10:33:52.989Z,14.92
2023-03-21T10:36:05.078Z,14.94
2023-03-21T10:38:14.992Z,15.03
2023-03-21T10:40:22.796Z,15.06
2023-03-21T10:42:29.725Z,15.04
2023-03-21T10:44:36.282Z,15.03
2023-03-21T10:46:41.582Z,15.14
2023-03-21T10:48:48.527Z,15.10
2023-03-21T10:50:57.657Z,15.20
2023-03-21T10:53:03.873Z,15.34
2023-03-21T10:55:21.883Z,15.49
2023-03-21T10:57:29.747Z,15.63
2023-03-21T10:59:42.726Z,15.63
2023-03-21T11:01:52.708Z,15.65
2023-03-21T11:04:01.000Z,15.47
2023-03-21T11:06:10.218Z,15.30
2023-03-21T11:08:19.246Z,15.20
2023-03-21T11:10:31.938Z,15.31
2023-03-21T11:12:41.690Z,15.39
2023-03-21T11:14:48.411Z,15.37
2023-03-21T11:16:53.994Z,15.31
2023-03-21T11:19:03.237Z,15.32
2023-03-21T11:21:11.321Z,15.42
2023-03-21T11:23:16.779Z,15.61
2023-03-21T11:25:25.944Z,15.77
2023-03-21T11:27:31.859Z,15.71
2023-03-21T11:29:42.761Z,15.59
2023-03-21T11:31:47.753Z,15.73
2023-03-21T11:33:57.001Z,15.83
2023-03-21T11:36:07.273Z,15.93
2023-03-21T11:38:28.734Z,15.84
2023-03-21T11:40:34.807Z,15.97
2023-03-21T11:42:46.771Z,15.93
2023-03-21T11:45:03.296Z,16.06
2023-03-21T11:47:08.692Z,16.14
2023-03-21T11:49:13.591Z,16.30
2023-03-21T11:51:31.802Z,16.42
2023-03-21T11:53:42.808Z,16.45
2023-03-21T11:56:02.844Z,16.51
2023-03-21T11:58:33.629Z,16.54
2023-03-21T12:00:49.198Z,16.53
2023-03-21T12:03:13.961Z,16.56
2023-03-21T12:05:22.327Z,16.55
2023-03-21T12:07:42.883Z,16.62
2023-03-21T12:09:53.826Z,16.63
2023-03-21T12:12:10.513Z,16.62
2023-03-21T12:14:24.003Z,16.48
2023-03-21T12:16:44.000Z,16.17
2023-03-21T12:19:04.514Z,16.06
2023-03-21T12:21:14.015Z,16.24
2023-03-21T12:23:45.585Z,16.38
2023-03-21T12:25:58.066Z,16.45
2023-03-21T12:28:16.942Z,16.46
2023-03-21T12:30:36.387Z,16.44
2023-03-21T12:32:58.474Z,16.31
2023-03-21T12:35:24.228Z,16.40
2023-03-21T12:37:37.150Z,16.44
2023-03-21T12:39:43.652Z,16.40
2023-03-21T12:41:58.129Z,16.54
2023-03-21T12:44:07.537Z,16.66
2023-03-21T12:46:21.067Z,16.76
2023-03-21T12:48:36.664Z,16.80
2023-03-21T12:50:43.047Z,16.77
2023-03-21T12:52:53.069Z,16.78
2023-03-21T12:55:02.687Z,16.71
2023-03-21T12:57:12.010Z,16.69
2023-03-21T12:59:25.720Z,16.62
2023-03-21T13:01:32.892Z,16.45
2023-03-21T13:03:45.401Z,16.56
2023-03-21T13:05:56.095Z,16.83
2023-03-21T13:08:07.244Z,17.05
2023-03-21T13:10:20.991Z,17.24
2023-03-21T13:12:38.510Z,17.36
2023-03-21T13:14:55.849Z,17.35
2023-03-21T13:17:05.163Z,17.41
2023-03-21T13:19:22.713Z,17.50
2023-03-21T13:21:37.220Z,17.38
2023-03-21T13:23:42.644Z,17.20
2023-03-21T13:25:49.981Z,17.23
2023-03-21T13:27:56.540Z,17.08
2023-03-21T13:30:06.580Z,17.00
2023-03-21T13:32:18.954Z,17.06
2023-03-21T13:34:28.228Z,17.03
2023-03-21T13:36:34.496Z,17.04
2023-03-21T13:38:40.762Z,16.96
2023-03-21T13:40:50.710Z,16.96
2023-03-21T13:42:59.898Z,16.98
2023-03-21T13:45:08.521Z,17.00
2023-03-21T13:47:47.369Z,17.00
2023-03-21T13:50:24.383Z,17.04
2023-03-21T13:52:31.820Z,17.06
2023-03-21T13:54:51.164Z,17.32
2023-03-21T13:57:01.278Z,17.47
2023-03-21T13:59:07.083Z,17.57
2023-03-21T14:01:36.061Z,17.72
2023-03-21T14:03:41.061Z,17.74
2023-03-21T14:05:51.676Z,17.70
2023-03-21T14:08:12.563Z,17.45
2023-03-21T14:10:23.190Z,17.43
2023-03-21T14:12:30.483Z,17.22
2023-03-21T14:14:40.724Z,17.16
2023-03-21T14:16:47.246Z,17.14
2023-03-21T14:18:56.689Z,17.16
2023-03-21T14:21:03.596Z,17.21
2023-03-21T14:23:19.374Z,17.43
2023-03-21T14:25:31.240Z,17.62
2023-03-21T14:27:46.341Z,17.61
2023-03-21T14:29:53.493Z,17.49
2023-03-21T14:32:00.300Z,17.51
2023-03-21T14:34:07.158Z,17.35
2023-03-21T14:36:16.830Z,17.28
2023-03-21T14:38:26.565Z,17.21
2023-03-21T14:40:32.332Z,17.27
2023-03-21T14:42:38.088Z,17.38
2023-03-21T14:44:54.506Z,17.47
2023-03-21T14:47:04.160Z,17.62
2023-03-21T14:49:17.013Z,17.73
2023-03-21T14:51:24.980Z,17.75
2023-03-21T14:53:34.661Z,17.70
2023-03-21T14:55:45.484Z,17.47
2023-03-21T14:57:51.525Z,17.26
2023-03-21T14:59:59.530Z,17.25
2023-03-21T15:02:08.600Z,17.31
2023-03-21T15:04:16.917Z,17.36
2023-03-21T15:06:21.971Z,17.38
2023-03-21T15:08:28.802Z,17.40
2023-03-21T15:10:36.404Z,17.50
2023-03-21T15:12:41.539Z,17.36
2023-03-21T15:14:46.416Z,17.30
2023-03-21T15:16:51.798Z,17.38
2023-03-21T15:18:57.049Z,17.42
2023-03-21T15:21:06.250Z,17.45
2023-03-21T15:23:17.125Z,17.38
2023-03-21T15:25:25.363Z,17.26
2023-03-21T15:27:35.955Z,17.11
2023-03-21T15:29:42.111Z,17.16
2023-03-21T15:31:50.255Z,16.98
2023-03-21T15:33:56.678Z,16.99
2023-03-21T15:36:03.067Z,17.02
2023-03-21T15:38:07.959Z,17.05
2023-03-21T15:40:22.661Z,17.08
2023-03-21T15:42:33.120Z,17.17
2023-03-21T15:44:38.235Z,17.16
2023-03-21T15:46:44.463Z,17.09
2023-03-21T15:48:49.517Z,16.97
2023-03-21T15:50:59.845Z,16.96
2023-03-21T15:53:08.921Z,16.91
2023-03-21T15:55:26.532Z,16.82
2023-03-21T15:57:38.197Z,16.79
2023-03-21T15:59:48.016Z,16.67
2023-03-21T16:01:53.596Z,16.58
2023-03-21T16:04:01.012Z,16.39
2023-03-21T16:06:18.766Z,16.34
2023-03-21T16:08:25.766Z,16.29
2023-03-21T16:10:33.753Z,16.30
2023-03-21T16:12:41.212Z,16.12
2023-03-21T16:14:47.449Z,16.15
2023-03-21T16:16:53.004Z,16.12
2023-03-21T16:19:01.343Z,16.12
2023-03-21T16:21:09.400Z,16.15
2023-03-21T16:23:17.508Z,16.13
2023-03-21T16:25:23.080Z,16.04
2023-03-21T16:27:27.876Z,16.02
2023-03-21T16:29:35.450Z,15.99
2023-03-21T16:31:40.493Z,16.04
2023-03-21T16:33:45.874Z,16.09
2023-03-21T16:35:52.078Z,16.06
2023-03-21T16:37:57.030Z,15.96
2023-03-21T16:40:02.129Z,15.92
2023-03-21T16:42:06.998Z,15.78
2023-03-21T16:44:12.932Z,15.69
2023-03-21T16:46:23.243Z,15.63
2023-03-21T16:48:28.305Z,15.55
2023-03-21T16:50:36.338Z,15.58
2023-03-21T16:52:41.272Z,15.55
2023-03-21T16:54:46.306Z,15.55
2023-03-21T16:56:52.238Z,15.47
2023-03-21T16:58:57.834Z,15.48
2023-03-21T17:01:03.034Z,15.50
2023-03-21T17:03:19.591Z,15.33
2023-03-21T17:05:25.821Z,15.14
2023-03-21T17:07:30.635Z,15.15
2023-03-21T17:09:35.671Z,15.13
2023-03-21T17:11:41.707Z,15.05
2023-03-21T17:13:46.982Z,14.99
2023-03-21T17:15:51.821Z,14.86
2023-03-21T17:17:57.133Z,14.79
2023-03-21T17:20:06.446Z,14.76
2023-03-21T17:22:14.479Z,14.70
2023-03-21T17:24:19.692Z,14.62
2023-03-21T17:26:25.830Z,14.32
2023-03-21T17:28:30.724Z,14.17
2023-03-21T17:30:40.334Z,14.04
2023-03-21T17:32:45.463Z,13.90
2023-03-21T17:34:53.345Z,13.85
2023-03-21T17:37:01.764Z,13.77
2023-03-21T17:39:08.781Z,13.73
2023-03-21T17:41:14.803Z,13.65
2023-03-21T17:43:23.410Z,13.62
2023-03-21T17:45:28.558Z,13.68
2023-03-21T17:47:35.621Z,13.67
2023-03-21T17:49:40.619Z,13.67
2023-03-21T17:51:47.129Z,13.66
2023-03-21T17:53:54.625Z,13.67
2023-03-21T17:55:59.478Z,13.70
2023-03-21T17:58:05.659Z,13.67
2023-03-21T18:00:16.874Z,13.75
2023-03-21T18:02:21.705Z,13.75
2023-03-21T18:04:27.233Z,13.81
2023-03-21T18:06:32.844Z,13.85
2023-03-21T18:08:37.827Z,13.98
2023-03-21T18:10:45.446Z,14.10
2023-03-21T18:12:52.766Z,14.12
2023-03-21T18:14:57.690Z,14.11
2023-03-21T18:17:02.870Z,14.15
2023-03-21T18:19:07.996Z,14.11
2023-03-21T18:21:12.634Z,14.16
2023-03-21T18:23:18.864Z,14.22
2023-03-21T18:25:23.919Z,14.24
2023-03-21T18:27:33.118Z,14.29
2023-03-21T18:30:22.138Z,14.30
2023-03-21T18:32:06.855Z,14.33
2023-03-21T18:34:12.828Z,14.33
2023-03-21T18:36:25.620Z,14.34
2023-03-21T18:38:31.365Z,14.24
2023-03-21T18:40:36.344Z,14.17
2023-03-21T18:43:39.476Z,14.20
2023-03-21T18:45:12.119Z,14.27
2023-03-21T18:47:17.607Z,14.31
2023-03-21T18:50:06.071Z,14.19
2023-03-21T18:51:53.207Z,14.12
2023-03-21T18:53:58.417Z,14.07
2023-03-21T18:56:03.182Z,14.09
2023-03-21T18:58:10.736Z,13.95
2023-03-21T19:00:23.277Z,13.95
2023-03-21T19:02:28.291Z,13.92
2023-03-21T19:04:33.786Z,13.92
2023-03-21T19:06:38.687Z,13.98
2023-03-21T19:08:44.611Z,14.01
2023-03-21T19:10:51.235Z,14.05
2023-03-21T19:12:57.164Z,14.08
2023-03-21T19:15:05.997Z,14.13
2023-03-21T19:19:36.136Z,14.13
2023-03-21T19:21:40.794Z,14.09
2023-03-21T19:26:10.976Z,14.11
2023-03-21T19:28:16.043Z,14.12
2023-03-21T19:30:23.356Z,14.13
2023-03-21T19:32:28.407Z,14.15
2023-03-21T19:34:35.678Z,14.16
2023-03-21T19:36:45.582Z,14.20
2023-03-21T19:38:54.572Z,14.22
2023-03-21T19:41:01.644Z,14.18
2023-03-21T19:43:31.255Z,14.20
2023-03-21T19:45:34.092Z,14.20
2023-03-21T19:47:39.031Z,14.24
2023-03-21T19:52:09.895Z,14.25
2023-03-21T19:54:14.849Z,14.25
2023-03-21T19:56:23.168Z,14.24
2023-03-21T19:58:31.401Z,14.23
2023-03-21T20:00:39.530Z,14.26
2023-03-21T20:02:45.512Z,14.23
2023-03-21T20:04:50.736Z,14.21
2023-03-21T20:06:58.129Z,14.06
2023-03-21T20:09:47.245Z,13.94
2023-03-21T20:11:27.940Z,13.84
2023-03-21T20:13:33.000Z,13.81
2023-03-21T20:15:48.107Z,13.84
2023-03-21T20:17:53.756Z,13.80
2023-03-21T20:20:00.182Z,13.81
2023-03-21T20:22:16.059Z,13.86
2023-03-21T20:24:24.972Z,13.91
2023-03-21T20:26:31.061Z,13.95
2023-03-21T20:28:38.113Z,14.00
2023-03-21T20:30:50.872Z,14.03
2023-03-21T20:32:56.001Z,14.06
2023-03-21T20:35:13.722Z,14.09
2023-03-21T20:37:22.704Z,14.12
2023-03-21T20:39:29.770Z,14.16
2023-03-21T20:41:34.860Z,14.13
2023-03-21T20:46:09.388Z,14.07
2023-03-21T20:48:14.396Z,14.04
2023-03-21T20:50:22.024Z,13.98
2023-03-21T20:52:54.831Z,13.87
2023-03-21T20:54:54.028Z,13.66
2023-03-21T20:56:58.950Z,13.53
2023-03-21T20:59:16.737Z,13.43
2023-03-21T21:01:29.025Z,13.41
2023-03-21T21:03:38.410Z,13.34
2023-03-21T21:05:46.592Z,13.38
2023-03-21T21:07:52.965Z,13.32
2023-03-21T21:09:57.881Z,13.34
2023-03-21T21:12:07.005Z,13.43
2023-03-21T21:14:15.373Z,13.48
2023-03-21T21:16:20.570Z,13.54
2023-03-21T21:18:28.644Z,13.62
2023-03-21T21:20:35.627Z,13.66
2023-03-21T21:22:45.249Z,13.65
2023-03-21T21:24:51.409Z,13.67
2023-03-21T21:26:56.265Z,13.68
2023-03-21T21:29:01.697Z,13.65
2023-03-21T21:31:12.584Z,13.65
2023-03-21T21:33:18.028Z,13.57
2023-03-21T21:35:26.296Z,13.54
2023-03-21T21:37:34.050Z,13.54
2023-03-21T21:39:40.368Z,13.52
2023-03-21T21:41:46.048Z,13.53
2023-03-21T21:43:51.083Z,13.54
2023-03-21T21:45:56.655Z,13.56
2023-03-21T21:48:02.180Z,13.56
2023-03-21T21:50:07.851Z,13.57
2023-03-21T21:52:24.261Z,13.40
2023-03-21T21:54:30.317Z,13.42
2023-03-21T21:56:37.845Z,13.43
2023-03-21T21:58:48.794Z,13.45
2023-03-21T22:00:54.492Z,13.46
2023-03-21T22:03:00.738Z,13.48
2023-03-21T22:05:05.811Z,13.49
2023-03-21T22:07:14.559Z,13.49
2023-03-21T22:09:25.737Z,13.50
2023-03-21T22:11:30.602Z,13.46
2023-03-21T22:13:35.503Z,13.41
2023-03-21T22:15:40.308Z,13.44
2023-03-21T22:17:45.263Z,13.45
2023-03-21T22:20:04.696Z,13.47
2023-03-21T22:22:10.845Z,13.48
2023-03-21T22:24:15.708Z,13.47
2023-03-21T22:26:23.317Z,13.47
2023-03-21T22:28:28.372Z,13.45
2023-03-21T22:30:33.114Z,13.37
2023-03-21T22:32:39.428Z,13.33
2023-03-21T22:34:44.534Z,13.33
2023-03-21T22:36:50.421Z,13.27
2023-03-21T22:38:55.234Z,13.27
2023-03-21T22:41:01.384Z,13.26
2023-03-21T22:43:09.019Z,13.26
2023-03-21T22:45:17.613Z,13.22
2023-03-21T22:47:25.519Z,13.22
2023-03-21T22:49:31.874Z,13.19
2023-03-21T22:51:36.882Z,13.16
2023-03-21T22:53:41.775Z,13.13
2023-03-21T22:55:46.624Z,13.09
2023-03-21T22:57:51.476Z,13.05
2023-03-21T22:59:59.054Z,13.01
2023-03-21T23:02:03.888Z,13.00
2023-03-21T23:04:09.665Z,12.99
2023-03-21T23:06:14.978Z,12.99
2023-03-21T23:11:34.264Z,12.95
2023-03-21T23:13:41.392Z,12.91
2023-03-21T23:15:48.924Z,12.91
2023-03-21T23:17:53.932Z,12.90
2023-03-21T23:19:59.060Z,12.89
2023-03-21T23:22:04.015Z,12.85
2023-03-21T23:24:10.750Z,12.84
2023-03-21T23:26:16.089Z,12.81
2023-03-21T23:28:21.004Z,12.83
2023-03-21T23:30:25.798Z,12.85
2023-03-21T23:32:34.206Z,12.88
2023-03-21T23:34:39.054Z,12.89
2023-03-21T23:36:43.976Z,12.90
2023-03-21T23:38:50.380Z,12.90
2023-03-21T23:40:57.160Z,12.88
2023-03-21T23:43:02.403Z,12.86
2023-03-21T23:45:08.370Z,12.85
2023-03-21T23:47:13.139Z,12.85
2023-03-21T23:49:20.601Z,12.85
2023-03-21T23:51:25.518Z,12.82
2023-03-21T23:53:30.288Z,12.77
2023-03-21T23:55:35.123Z,12.71
2023-03-21T23:57:41.914Z,12.65
2023-03-21T23:59:47.193Z,12.63
